Frankton, Indiana
Current Conditions -  °F | °C
As of 5:55 PM on Tuesday 27 Jan 2015 (Local Time) from KMZZ Reporting Station
Clear Clear  
Wind Chill: 18°   Ceiling: Unl
Heat Index: 24°   Visibility: 10mi
Dew Point: 12°   Wind: 5mph
Humidity: 59%   Direction: 360°N
Pressure: 30.18"   Gusts: NA
Location:  40.22°N, 85.78°W
Report Text: KMZZ 272255Z AUTO 36004KT 10SM CLR M04/M11 A3018 RMK AO2 T10431112
Loading
Personal Weather Stations






























Interactive Weather Map New forecast layout! Learn more

10-Day Weather Forecast

Advertisements
Track Severe Weather on mobile